sensor_id;sensor_type;location;lat;lon;timestamp;P1;durP1;ratioP1;P2;durP2;ratioP2
15946;SDS011;8072;52.554;7.966;2023-05-10T00:01:47;16.80;;;11.23;;
15946;SDS011;8072;52.554;7.966;2023-05-10T00:04:13;14.77;;;11.13;;
15946;SDS011;8072;52.554;7.966;2023-05-10T00:06:38;15.93;;;12.20;;
15946;SDS011;8072;52.554;7.966;2023-05-10T00:09:04;14.27;;;11.33;;
15946;SDS011;8072;52.554;7.966;2023-05-10T00:11:30;16.23;;;12.17;;
15946;SDS011;8072;52.554;7.966;2023-05-10T00:13:56;16.87;;;12.23;;
15946;SDS011;8072;52.554;7.966;2023-05-10T00:16:22;17.47;;;12.27;;
15946;SDS011;8072;52.554;7.966;2023-05-10T00:18:47;18.43;;;12.03;;
15946;SDS011;8072;52.554;7.966;2023-05-10T00:21:13;16.17;;;12.10;;
15946;SDS011;8072;52.554;7.966;2023-05-10T00:23:39;15.63;;;11.57;;
15946;SDS011;8072;52.554;7.966;2023-05-10T00:26:05;14.83;;;11.60;;
15946;SDS011;8072;52.554;7.966;2023-05-10T00:28:31;17.50;;;12.83;;
15946;SDS011;8072;52.554;7.966;2023-05-10T00:30:56;15.57;;;11.73;;
15946;SDS011;8072;52.554;7.966;2023-05-10T00:33:22;17.87;;;12.30;;
15946;SDS011;8072;52.554;7.966;2023-05-10T00:35:48;17.07;;;11.47;;
15946;SDS011;8072;52.554;7.966;2023-05-10T00:38:13;18.10;;;11.90;;
15946;SDS011;8072;52.554;7.966;2023-05-10T00:40:39;16.30;;;11.53;;
15946;SDS011;8072;52.554;7.966;2023-05-10T00:43:05;17.17;;;11.47;;
15946;SDS011;8072;52.554;7.966;2023-05-10T00:45:32;16.53;;;11.53;;
15946;SDS011;8072;52.554;7.966;2023-05-10T00:48:00;15.83;;;11.47;;
15946;SDS011;8072;52.554;7.966;2023-05-10T00:50:28;17.60;;;11.23;;
15946;SDS011;8072;52.554;7.966;2023-05-10T00:52:56;16.13;;;11.10;;
15946;SDS011;8072;52.554;7.966;2023-05-10T00:55:23;14.20;;;10.63;;
15946;SDS011;8072;52.554;7.966;2023-05-10T00:57:49;16.03;;;11.27;;
15946;SDS011;8072;52.554;7.966;2023-05-10T01:00:15;14.13;;;9.90;;
15946;SDS011;8072;52.554;7.966;2023-05-10T01:02:44;15.23;;;10.33;;
15946;SDS011;8072;52.554;7.966;2023-05-10T01:05:11;15.23;;;11.30;;
15946;SDS011;8072;52.554;7.966;2023-05-10T01:07:37;14.83;;;11.30;;
15946;SDS011;8072;52.554;7.966;2023-05-10T01:10:04;15.10;;;11.10;;
15946;SDS011;8072;52.554;7.966;2023-05-10T01:12:34;15.00;;;11.00;;
15946;SDS011;8072;52.554;7.966;2023-05-10T01:15:03;14.07;;;10.07;;
15946;SDS011;8072;52.554;7.966;2023-05-10T01:17:30;14.13;;;9.67;;
15946;SDS011;8072;52.554;7.966;2023-05-10T01:19:57;13.07;;;9.70;;
15946;SDS011;8072;52.554;7.966;2023-05-10T01:25:29;15.43;;;10.30;;
15946;SDS011;8072;52.554;7.966;2023-05-10T01:28:58;12.80;;;9.47;;
15946;SDS011;8072;52.554;7.966;2023-05-10T01:31:58;13.27;;;9.37;;
15946;SDS011;8072;52.554;7.966;2023-05-10T01:34:09;13.33;;;8.80;;
15946;SDS011;8072;52.554;7.966;2023-05-10T01:37:02;10.47;;;8.37;;
15946;SDS011;8072;52.554;7.966;2023-05-10T01:42:10;11.83;;;8.47;;
15946;SDS011;8072;52.554;7.966;2023-05-10T01:47:30;15.77;;;8.30;;
15946;SDS011;8072;52.554;7.966;2023-05-10T01:50:15;9.33;;;6.63;;
15946;SDS011;8072;52.554;7.966;2023-05-10T01:52:44;6.63;;;4.83;;
15946;SDS011;8072;52.554;7.966;2023-05-10T01:55:15;3.63;;;3.27;;
15946;SDS011;8072;52.554;7.966;2023-05-10T01:57:43;3.60;;;2.80;;
15946;SDS011;8072;52.554;7.966;2023-05-10T02:00:11;4.67;;;3.00;;
15946;SDS011;8072;52.554;7.966;2023-05-10T02:02:45;4.23;;;3.23;;
15946;SDS011;8072;52.554;7.966;2023-05-10T02:05:16;3.27;;;2.87;;
15946;SDS011;8072;52.554;7.966;2023-05-10T02:07:43;3.50;;;3.10;;
15946;SDS011;8072;52.554;7.966;2023-05-10T02:10:09;3.50;;;2.87;;
15946;SDS011;8072;52.554;7.966;2023-05-10T02:12:37;3.90;;;2.80;;
15946;SDS011;8072;52.554;7.966;2023-05-10T02:15:06;3.87;;;3.30;;
15946;SDS011;8072;52.554;7.966;2023-05-10T02:17:34;3.97;;;3.30;;
15946;SDS011;8072;52.554;7.966;2023-05-10T02:20:03;3.63;;;3.27;;
15946;SDS011;8072;52.554;7.966;2023-05-10T02:22:31;4.93;;;3.17;;
15946;SDS011;8072;52.554;7.966;2023-05-10T02:24:59;5.67;;;4.07;;
15946;SDS011;8072;52.554;7.966;2023-05-10T02:27:26;4.77;;;3.53;;
15946;SDS011;8072;52.554;7.966;2023-05-10T02:29:53;4.40;;;3.70;;
15946;SDS011;8072;52.554;7.966;2023-05-10T02:32:22;4.63;;;3.90;;
15946;SDS011;8072;52.554;7.966;2023-05-10T02:34:49;5.70;;;4.10;;
15946;SDS011;8072;52.554;7.966;2023-05-10T02:37:18;5.43;;;4.07;;
15946;SDS011;8072;52.554;7.966;2023-05-10T02:39:46;6.50;;;3.63;;
15946;SDS011;8072;52.554;7.966;2023-05-10T02:42:22;3.83;;;3.27;;
15946;SDS011;8072;52.554;7.966;2023-05-10T02:44:52;3.63;;;2.90;;
15946;SDS011;8072;52.554;7.966;2023-05-10T02:47:22;4.20;;;2.90;;
15946;SDS011;8072;52.554;7.966;2023-05-10T02:49:48;3.40;;;2.70;;
15946;SDS011;8072;52.554;7.966;2023-05-10T02:52:15;3.17;;;2.40;;
15946;SDS011;8072;52.554;7.966;2023-05-10T02:54:47;3.17;;;2.57;;
15946;SDS011;8072;52.554;7.966;2023-05-10T02:57:16;3.03;;;2.13;;
15946;SDS011;8072;52.554;7.966;2023-05-10T02:59:47;3.60;;;2.50;;
15946;SDS011;8072;52.554;7.966;2023-05-10T03:02:13;3.67;;;2.63;;
15946;SDS011;8072;52.554;7.966;2023-05-10T03:04:39;3.43;;;2.77;;
15946;SDS011;8072;52.554;7.966;2023-05-10T03:07:05;3.07;;;2.67;;
15946;SDS011;8072;52.554;7.966;2023-05-10T03:09:31;2.93;;;2.63;;
15946;SDS011;8072;52.554;7.966;2023-05-10T03:14:56;4.13;;;3.50;;
15946;SDS011;8072;52.554;7.966;2023-05-10T03:17:30;4.00;;;3.37;;
15946;SDS011;8072;52.554;7.966;2023-05-10T03:20:03;6.03;;;4.17;;
15946;SDS011;8072;52.554;7.966;2023-05-10T03:22:32;6.87;;;4.50;;
15946;SDS011;8072;52.554;7.966;2023-05-10T03:25:04;7.80;;;4.90;;
15946;SDS011;8072;52.554;7.966;2023-05-10T03:27:33;6.77;;;5.10;;
15946;SDS011;8072;52.554;7.966;2023-05-10T03:30:02;7.03;;;4.90;;
15946;SDS011;8072;52.554;7.966;2023-05-10T03:32:28;6.07;;;4.90;;
15946;SDS011;8072;52.554;7.966;2023-05-10T03:34:56;7.30;;;5.47;;
15946;SDS011;8072;52.554;7.966;2023-05-10T03:37:22;7.33;;;5.57;;
15946;SDS011;8072;52.554;7.966;2023-05-10T03:39:48;8.70;;;5.80;;
15946;SDS011;8072;52.554;7.966;2023-05-10T03:42:14;6.70;;;4.87;;
15946;SDS011;8072;52.554;7.966;2023-05-10T03:44:42;9.10;;;6.17;;
15946;SDS011;8072;52.554;7.966;2023-05-10T03:47:09;8.53;;;5.63;;
15946;SDS011;8072;52.554;7.966;2023-05-10T03:49:34;7.10;;;5.60;;
15946;SDS011;8072;52.554;7.966;2023-05-10T03:52:00;9.00;;;5.93;;
15946;SDS011;8072;52.554;7.966;2023-05-10T03:54:26;7.77;;;5.93;;
15946;SDS011;8072;52.554;7.966;2023-05-10T03:56:51;7.40;;;6.10;;
15946;SDS011;8072;52.554;7.966;2023-05-10T03:59:17;7.27;;;5.93;;
15946;SDS011;8072;52.554;7.966;2023-05-10T04:01:43;10.13;;;6.83;;
15946;SDS011;8072;52.554;7.966;2023-05-10T04:04:09;10.23;;;6.63;;
15946;SDS011;8072;52.554;7.966;2023-05-10T04:06:34;8.27;;;6.47;;
15946;SDS011;8072;52.554;7.966;2023-05-10T04:09:00;8.83;;;6.17;;
15946;SDS011;8072;52.554;7.966;2023-05-10T04:11:29;9.33;;;6.67;;
15946;SDS011;8072;52.554;7.966;2023-05-10T04:13:55;9.87;;;6.47;;
15946;SDS011;8072;52.554;7.966;2023-05-10T04:16:20;10.60;;;7.53;;
15946;SDS011;8072;52.554;7.966;2023-05-10T04:18:47;10.67;;;7.40;;
15946;SDS011;8072;52.554;7.966;2023-05-10T04:21:13;9.13;;;7.03;;
15946;SDS011;8072;52.554;7.966;2023-05-10T04:23:40;10.20;;;7.47;;
15946;SDS011;8072;52.554;7.966;2023-05-10T04:26:06;11.27;;;8.07;;
15946;SDS011;8072;52.554;7.966;2023-05-10T04:28:32;10.50;;;7.77;;
15946;SDS011;8072;52.554;7.966;2023-05-10T04:31:02;9.57;;;7.30;;
15946;SDS011;8072;52.554;7.966;2023-05-10T04:33:31;9.30;;;7.10;;
15946;SDS011;8072;52.554;7.966;2023-05-10T04:35:58;10.60;;;7.77;;
15946;SDS011;8072;52.554;7.966;2023-05-10T04:38:24;9.83;;;7.33;;
15946;SDS011;8072;52.554;7.966;2023-05-10T04:40:51;11.30;;;7.20;;
15946;SDS011;8072;52.554;7.966;2023-05-10T04:43:20;10.50;;;7.53;;
15946;SDS011;8072;52.554;7.966;2023-05-10T04:45:45;12.10;;;7.83;;
15946;SDS011;8072;52.554;7.966;2023-05-10T04:48:11;11.23;;;7.83;;
15946;SDS011;8072;52.554;7.966;2023-05-10T04:50:37;11.40;;;7.90;;
15946;SDS011;8072;52.554;7.966;2023-05-10T04:53:04;13.27;;;8.03;;
15946;SDS011;8072;52.554;7.966;2023-05-10T04:55:30;11.10;;;7.93;;
15946;SDS011;8072;52.554;7.966;2023-05-10T04:57:56;10.93;;;7.77;;
15946;SDS011;8072;52.554;7.966;2023-05-10T05:00:22;13.90;;;8.37;;
15946;SDS011;8072;52.554;7.966;2023-05-10T05:02:48;10.97;;;7.80;;
15946;SDS011;8072;52.554;7.966;2023-05-10T05:05:14;12.77;;;8.20;;
15946;SDS011;8072;52.554;7.966;2023-05-10T05:07:40;11.60;;;7.53;;
15946;SDS011;8072;52.554;7.966;2023-05-10T05:10:06;11.37;;;8.20;;
15946;SDS011;8072;52.554;7.966;2023-05-10T05:12:33;10.23;;;7.67;;
15946;SDS011;8072;52.554;7.966;2023-05-10T05:14:59;11.70;;;8.03;;
15946;SDS011;8072;52.554;7.966;2023-05-10T05:17:25;10.17;;;7.50;;
15946;SDS011;8072;52.554;7.966;2023-05-10T05:19:52;9.93;;;7.70;;
15946;SDS011;8072;52.554;7.966;2023-05-10T05:22:20;11.90;;;7.53;;
15946;SDS011;8072;52.554;7.966;2023-05-10T05:24:52;11.37;;;7.57;;
15946;SDS011;8072;52.554;7.966;2023-05-10T05:27:21;11.03;;;6.97;;
15946;SDS011;8072;52.554;7.966;2023-05-10T05:29:55;9.77;;;7.53;;
15946;SDS011;8072;52.554;7.966;2023-05-10T05:32:22;10.23;;;7.37;;
15946;SDS011;8072;52.554;7.966;2023-05-10T05:34:48;9.80;;;7.33;;
15946;SDS011;8072;52.554;7.966;2023-05-10T05:37:14;10.93;;;6.97;;
15946;SDS011;8072;52.554;7.966;2023-05-10T05:39:41;10.00;;;7.00;;
15946;SDS011;8072;52.554;7.966;2023-05-10T05:42:07;11.27;;;7.77;;
15946;SDS011;8072;52.554;7.966;2023-05-10T05:44:37;12.60;;;7.10;;
15946;SDS011;8072;52.554;7.966;2023-05-10T05:47:03;12.43;;;8.23;;
15946;SDS011;8072;52.554;7.966;2023-05-10T05:49:29;9.60;;;6.80;;
15946;SDS011;8072;52.554;7.966;2023-05-10T05:51:58;10.57;;;7.47;;
15946;SDS011;8072;52.554;7.966;2023-05-10T05:54:25;11.27;;;6.87;;
15946;SDS011;8072;52.554;7.966;2023-05-10T05:56:53;12.23;;;6.77;;
15946;SDS011;8072;52.554;7.966;2023-05-10T05:59:20;8.70;;;6.33;;
15946;SDS011;8072;52.554;7.966;2023-05-10T06:01:46;10.07;;;6.83;;
15946;SDS011;8072;52.554;7.966;2023-05-10T06:04:12;10.30;;;6.93;;
15946;SDS011;8072;52.554;7.966;2023-05-10T06:06:38;10.77;;;6.20;;
15946;SDS011;8072;52.554;7.966;2023-05-10T06:09:04;9.10;;;6.53;;
15946;SDS011;8072;52.554;7.966;2023-05-10T06:11:30;9.83;;;6.27;;
15946;SDS011;8072;52.554;7.966;2023-05-10T06:13:57;10.20;;;6.47;;
15946;SDS011;8072;52.554;7.966;2023-05-10T06:16:24;10.40;;;6.30;;
15946;SDS011;8072;52.554;7.966;2023-05-10T06:18:50;9.97;;;6.43;;
15946;SDS011;8072;52.554;7.966;2023-05-10T06:21:17;10.83;;;7.07;;
15946;SDS011;8072;52.554;7.966;2023-05-10T06:23:43;10.80;;;6.70;;
15946;SDS011;8072;52.554;7.966;2023-05-10T06:26:09;11.17;;;7.37;;
15946;SDS011;8072;52.554;7.966;2023-05-10T06:28:35;11.23;;;7.57;;
15946;SDS011;8072;52.554;7.966;2023-05-10T06:31:04;11.23;;;7.40;;
15946;SDS011;8072;52.554;7.966;2023-05-10T06:33:31;12.10;;;7.57;;
15946;SDS011;8072;52.554;7.966;2023-05-10T06:35:58;12.80;;;8.37;;
15946;SDS011;8072;52.554;7.966;2023-05-10T06:38:24;12.20;;;7.90;;
15946;SDS011;8072;52.554;7.966;2023-05-10T06:40:50;16.27;;;8.90;;
15946;SDS011;8072;52.554;7.966;2023-05-10T06:43:15;12.77;;;8.33;;
15946;SDS011;8072;52.554;7.966;2023-05-10T06:45:41;21.10;;;9.37;;
15946;SDS011;8072;52.554;7.966;2023-05-10T06:48:07;15.63;;;9.27;;
15946;SDS011;8072;52.554;7.966;2023-05-10T06:50:33;16.33;;;9.60;;
15946;SDS011;8072;52.554;7.966;2023-05-10T06:52:59;16.50;;;9.53;;
15946;SDS011;8072;52.554;7.966;2023-05-10T06:55:26;17.47;;;10.13;;
15946;SDS011;8072;52.554;7.966;2023-05-10T06:57:52;15.40;;;9.70;;
15946;SDS011;8072;52.554;7.966;2023-05-10T07:00:19;17.97;;;10.27;;
15946;SDS011;8072;52.554;7.966;2023-05-10T07:02:46;16.30;;;10.03;;
15946;SDS011;8072;52.554;7.966;2023-05-10T07:05:12;18.60;;;10.30;;
15946;SDS011;8072;52.554;7.966;2023-05-10T07:07:38;19.30;;;10.93;;
15946;SDS011;8072;52.554;7.966;2023-05-10T07:10:04;18.53;;;10.20;;
15946;SDS011;8072;52.554;7.966;2023-05-10T07:12:30;19.63;;;10.83;;
15946;SDS011;8072;52.554;7.966;2023-05-10T07:14:56;17.87;;;10.40;;
15946;SDS011;8072;52.554;7.966;2023-05-10T07:17:22;17.17;;;10.50;;
15946;SDS011;8072;52.554;7.966;2023-05-10T07:19:48;15.73;;;10.10;;
15946;SDS011;8072;52.554;7.966;2023-05-10T07:22:14;19.90;;;10.10;;
15946;SDS011;8072;52.554;7.966;2023-05-10T07:24:40;16.33;;;10.33;;
15946;SDS011;8072;52.554;7.966;2023-05-10T07:27:06;18.63;;;11.20;;
15946;SDS011;8072;52.554;7.966;2023-05-10T07:29:32;19.03;;;11.53;;
15946;SDS011;8072;52.554;7.966;2023-05-10T07:31:58;19.87;;;10.90;;
15946;SDS011;8072;52.554;7.966;2023-05-10T07:34:24;18.13;;;11.07;;
15946;SDS011;8072;52.554;7.966;2023-05-10T07:36:50;18.40;;;11.47;;
15946;SDS011;8072;52.554;7.966;2023-05-10T07:39:16;16.03;;;9.77;;
15946;SDS011;8072;52.554;7.966;2023-05-10T07:41:41;16.63;;;10.40;;
15946;SDS011;8072;52.554;7.966;2023-05-10T07:44:07;21.10;;;10.67;;
15946;SDS011;8072;52.554;7.966;2023-05-10T07:46:33;17.50;;;9.77;;
15946;SDS011;8072;52.554;7.966;2023-05-10T07:48:59;18.50;;;10.47;;
15946;SDS011;8072;52.554;7.966;2023-05-10T07:51:25;18.23;;;10.07;;
15946;SDS011;8072;52.554;7.966;2023-05-10T07:53:51;18.33;;;9.53;;
15946;SDS011;8072;52.554;7.966;2023-05-10T07:56:24;15.90;;;9.23;;
15946;SDS011;8072;52.554;7.966;2023-05-10T07:59:01;17.37;;;9.17;;
15946;SDS011;8072;52.554;7.966;2023-05-10T08:01:32;16.40;;;9.47;;
15946;SDS011;8072;52.554;7.966;2023-05-10T08:03:59;17.77;;;9.00;;
15946;SDS011;8072;52.554;7.966;2023-05-10T08:06:25;19.37;;;10.17;;
15946;SDS011;8072;52.554;7.966;2023-05-10T08:08:53;17.90;;;8.97;;
15946;SDS011;8072;52.554;7.966;2023-05-10T08:11:22;17.50;;;8.97;;
15946;SDS011;8072;52.554;7.966;2023-05-10T08:13:49;15.07;;;8.47;;
15946;SDS011;8072;52.554;7.966;2023-05-10T08:16:16;17.17;;;8.50;;
15946;SDS011;8072;52.554;7.966;2023-05-10T08:18:43;17.80;;;9.40;;
15946;SDS011;8072;52.554;7.966;2023-05-10T08:21:10;15.63;;;8.73;;
15946;SDS011;8072;52.554;7.966;2023-05-10T08:23:36;16.40;;;8.93;;
15946;SDS011;8072;52.554;7.966;2023-05-10T08:26:02;18.53;;;8.97;;
15946;SDS011;8072;52.554;7.966;2023-05-10T08:28:28;16.93;;;9.03;;
15946;SDS011;8072;52.554;7.966;2023-05-10T08:30:54;14.97;;;8.77;;
15946;SDS011;8072;52.554;7.966;2023-05-10T08:33:19;18.57;;;8.00;;
15946;SDS011;8072;52.554;7.966;2023-05-10T08:35:45;16.70;;;9.17;;
15946;SDS011;8072;52.554;7.966;2023-05-10T08:38:11;17.80;;;9.07;;
15946;SDS011;8072;52.554;7.966;2023-05-10T08:40:37;16.37;;;9.40;;
15946;SDS011;8072;52.554;7.966;2023-05-10T08:43:07;18.33;;;8.90;;
15946;SDS011;8072;52.554;7.966;2023-05-10T08:45:37;17.63;;;8.67;;
15946;SDS011;8072;52.554;7.966;2023-05-10T08:48:08;18.20;;;9.27;;
15946;SDS011;8072;52.554;7.966;2023-05-10T08:50:39;16.87;;;9.23;;
15946;SDS011;8072;52.554;7.966;2023-05-10T08:53:06;21.23;;;8.90;;
15946;SDS011;8072;52.554;7.966;2023-05-10T08:55:36;16.83;;;8.97;;
15946;SDS011;8072;52.554;7.966;2023-05-10T08:58:03;21.17;;;10.00;;
15946;SDS011;8072;52.554;7.966;2023-05-10T09:00:30;21.17;;;10.50;;
15946;SDS011;8072;52.554;7.966;2023-05-10T09:02:57;18.60;;;9.47;;
15946;SDS011;8072;52.554;7.966;2023-05-10T09:05:24;19.90;;;10.47;;
15946;SDS011;8072;52.554;7.966;2023-05-10T09:07:50;19.27;;;10.57;;
15946;SDS011;8072;52.554;7.966;2023-05-10T09:10:15;19.83;;;10.57;;
15946;SDS011;8072;52.554;7.966;2023-05-10T09:12:42;19.33;;;10.30;;
15946;SDS011;8072;52.554;7.966;2023-05-10T09:15:10;23.23;;;11.57;;
15946;SDS011;8072;52.554;7.966;2023-05-10T09:17:37;25.50;;;12.37;;
15946;SDS011;8072;52.554;7.966;2023-05-10T09:20:05;18.70;;;10.37;;
15946;SDS011;8072;52.554;7.966;2023-05-10T09:22:32;20.93;;;11.40;;
15946;SDS011;8072;52.554;7.966;2023-05-10T09:25:05;22.27;;;11.77;;
15946;SDS011;8072;52.554;7.966;2023-05-10T09:27:39;22.63;;;12.27;;
15946;SDS011;8072;52.554;7.966;2023-05-10T09:30:06;21.57;;;11.67;;
15946;SDS011;8072;52.554;7.966;2023-05-10T09:35:06;28.97;;;14.23;;
15946;SDS011;8072;52.554;7.966;2023-05-10T09:37:36;27.93;;;13.60;;
15946;SDS011;8072;52.554;7.966;2023-05-10T09:40:04;25.10;;;13.00;;
15946;SDS011;8072;52.554;7.966;2023-05-10T09:42:31;24.67;;;13.03;;
15946;SDS011;8072;52.554;7.966;2023-05-10T09:45:03;31.40;;;12.97;;
15946;SDS011;8072;52.554;7.966;2023-05-10T09:47:33;27.03;;;13.17;;
15946;SDS011;8072;52.554;7.966;2023-05-10T09:50:00;27.47;;;13.43;;
15946;SDS011;8072;52.554;7.966;2023-05-10T09:52:45;23.07;;;13.10;;
15946;SDS011;8072;52.554;7.966;2023-05-10T09:55:19;25.33;;;11.40;;
15946;SDS011;8072;52.554;7.966;2023-05-10T09:57:48;21.20;;;11.70;;
15946;SDS011;8072;52.554;7.966;2023-05-10T10:00:18;17.57;;;10.50;;
15946;SDS011;8072;52.554;7.966;2023-05-10T10:02:48;21.57;;;10.93;;
15946;SDS011;8072;52.554;7.966;2023-05-10T10:05:20;22.43;;;11.90;;
15946;SDS011;8072;52.554;7.966;2023-05-10T10:07:46;21.00;;;11.43;;
15946;SDS011;8072;52.554;7.966;2023-05-10T10:10:14;20.67;;;10.90;;
15946;SDS011;8072;52.554;7.966;2023-05-10T10:12:41;19.33;;;10.60;;
15946;SDS011;8072;52.554;7.966;2023-05-10T10:15:07;23.30;;;11.80;;
15946;SDS011;8072;52.554;7.966;2023-05-10T10:17:35;21.37;;;11.57;;
15946;SDS011;8072;52.554;7.966;2023-05-10T10:20:03;18.40;;;9.97;;
15946;SDS011;8072;52.554;7.966;2023-05-10T10:22:29;19.53;;;10.67;;
15946;SDS011;8072;52.554;7.966;2023-05-10T10:24:55;16.30;;;10.43;;
15946;SDS011;8072;52.554;7.966;2023-05-10T10:27:23;20.07;;;9.90;;
15946;SDS011;8072;52.554;7.966;2023-05-10T10:35:38;21.37;;;10.93;;
15946;SDS011;8072;52.554;7.966;2023-05-10T10:38:05;17.83;;;9.63;;
15946;SDS011;8072;52.554;7.966;2023-05-10T10:40:33;17.07;;;9.60;;
15946;SDS011;8072;52.554;7.966;2023-05-10T10:48:34;16.10;;;9.13;;
15946;SDS011;8072;52.554;7.966;2023-05-10T10:51:00;13.60;;;8.97;;
15946;SDS011;8072;52.554;7.966;2023-05-10T10:53:27;15.53;;;8.40;;
15946;SDS011;8072;52.554;7.966;2023-05-10T10:58:52;11.83;;;7.17;;
15946;SDS011;8072;52.554;7.966;2023-05-10T11:01:19;11.43;;;6.70;;
15946;SDS011;8072;52.554;7.966;2023-05-10T11:06:40;10.83;;;6.67;;
15946;SDS011;8072;52.554;7.966;2023-05-10T11:09:11;12.47;;;7.30;;
15946;SDS011;8072;52.554;7.966;2023-05-10T11:11:53;13.23;;;7.23;;
15946;SDS011;8072;52.554;7.966;2023-05-10T11:14:23;5.77;;;4.20;;
15946;SDS011;8072;52.554;7.966;2023-05-10T11:16:49;7.20;;;3.80;;
15946;SDS011;8072;52.554;7.966;2023-05-10T11:19:15;7.30;;;3.40;;
15946;SDS011;8072;52.554;7.966;2023-05-10T11:21:49;4.87;;;3.07;;
15946;SDS011;8072;52.554;7.966;2023-05-10T11:24:20;5.20;;;3.43;;
15946;SDS011;8072;52.554;7.966;2023-05-10T11:26:49;5.37;;;3.53;;
15946;SDS011;8072;52.554;7.966;2023-05-10T11:29:16;4.80;;;3.30;;
15946;SDS011;8072;52.554;7.966;2023-05-10T11:31:43;5.63;;;3.40;;
15946;SDS011;8072;52.554;7.966;2023-05-10T11:34:10;5.93;;;2.97;;
15946;SDS011;8072;52.554;7.966;2023-05-10T11:36:37;4.97;;;3.80;;
15946;SDS011;8072;52.554;7.966;2023-05-10T11:39:03;5.33;;;3.60;;
15946;SDS011;8072;52.554;7.966;2023-05-10T11:41:30;5.70;;;3.47;;
15946;SDS011;8072;52.554;7.966;2023-05-10T11:43:56;5.70;;;3.20;;
15946;SDS011;8072;52.554;7.966;2023-05-10T11:46:24;6.40;;;3.33;;
15946;SDS011;8072;52.554;7.966;2023-05-10T11:48:56;6.97;;;3.63;;
15946;SDS011;8072;52.554;7.966;2023-05-10T11:51:26;4.97;;;3.57;;
15946;SDS011;8072;52.554;7.966;2023-05-10T11:53:53;6.77;;;3.30;;
15946;SDS011;8072;52.554;7.966;2023-05-10T11:56:19;3.73;;;3.13;;
15946;SDS011;8072;52.554;7.966;2023-05-10T11:58:51;5.67;;;3.87;;
15946;SDS011;8072;52.554;7.966;2023-05-10T12:01:21;4.37;;;3.07;;
15946;SDS011;8072;52.554;7.966;2023-05-10T12:03:48;6.00;;;3.90;;
15946;SDS011;8072;52.554;7.966;2023-05-10T12:06:15;5.87;;;3.00;;
15946;SDS011;8072;52.554;7.966;2023-05-10T12:08:45;7.37;;;4.00;;
15946;SDS011;8072;52.554;7.966;2023-05-10T12:11:12;7.97;;;3.60;;
15946;SDS011;8072;52.554;7.966;2023-05-10T12:13:41;5.17;;;3.60;;
15946;SDS011;8072;52.554;7.966;2023-05-10T12:16:21;5.70;;;3.53;;
15946;SDS011;8072;52.554;7.966;2023-05-10T12:18:49;7.27;;;3.70;;
15946;SDS011;8072;52.554;7.966;2023-05-10T12:21:19;7.20;;;3.67;;
15946;SDS011;8072;52.554;7.966;2023-05-10T12:23:48;5.43;;;3.93;;
15946;SDS011;8072;52.554;7.966;2023-05-10T12:26:18;6.37;;;3.93;;
15946;SDS011;8072;52.554;7.966;2023-05-10T12:28:46;6.87;;;3.87;;
15946;SDS011;8072;52.554;7.966;2023-05-10T12:31:12;7.17;;;4.20;;
15946;SDS011;8072;52.554;7.966;2023-05-10T12:33:41;6.77;;;4.03;;
15946;SDS011;8072;52.554;7.966;2023-05-10T12:36:12;9.43;;;5.07;;
15946;SDS011;8072;52.554;7.966;2023-05-10T12:38:43;10.17;;;4.40;;
15946;SDS011;8072;52.554;7.966;2023-05-10T12:41:14;10.57;;;4.90;;
15946;SDS011;8072;52.554;7.966;2023-05-10T12:43:40;7.97;;;5.03;;
15946;SDS011;8072;52.554;7.966;2023-05-10T12:46:10;6.63;;;4.13;;
15946;SDS011;8072;52.554;7.966;2023-05-10T12:48:38;9.40;;;4.50;;
15946;SDS011;8072;52.554;7.966;2023-05-10T12:51:05;8.53;;;4.37;;
15946;SDS011;8072;52.554;7.966;2023-05-10T12:53:34;5.47;;;3.93;;
15946;SDS011;8072;52.554;7.966;2023-05-10T12:56:00;7.43;;;4.77;;
15946;SDS011;8072;52.554;7.966;2023-05-10T12:58:26;6.83;;;3.90;;
15946;SDS011;8072;52.554;7.966;2023-05-10T13:00:52;6.27;;;4.27;;
15946;SDS011;8072;52.554;7.966;2023-05-10T13:03:18;6.20;;;3.97;;
15946;SDS011;8072;52.554;7.966;2023-05-10T13:05:44;10.20;;;4.07;;
15946;SDS011;8072;52.554;7.966;2023-05-10T13:08:10;6.33;;;3.87;;
15946;SDS011;8072;52.554;7.966;2023-05-10T13:10:36;7.43;;;3.87;;
15946;SDS011;8072;52.554;7.966;2023-05-10T13:13:01;7.30;;;4.13;;
15946;SDS011;8072;52.554;7.966;2023-05-10T13:15:27;6.30;;;3.87;;
15946;SDS011;8072;52.554;7.966;2023-05-10T13:17:53;5.70;;;4.07;;
15946;SDS011;8072;52.554;7.966;2023-05-10T13:20:20;6.80;;;3.57;;
15946;SDS011;8072;52.554;7.966;2023-05-10T13:22:46;6.83;;;4.50;;
15946;SDS011;8072;52.554;7.966;2023-05-10T13:25:11;6.33;;;4.20;;
15946;SDS011;8072;52.554;7.966;2023-05-10T13:27:38;6.50;;;4.20;;
15946;SDS011;8072;52.554;7.966;2023-05-10T13:30:06;6.80;;;4.60;;
15946;SDS011;8072;52.554;7.966;2023-05-10T13:32:36;6.63;;;3.90;;
15946;SDS011;8072;52.554;7.966;2023-05-10T13:35:03;5.73;;;3.97;;
15946;SDS011;8072;52.554;7.966;2023-05-10T13:37:30;7.57;;;3.87;;
15946;SDS011;8072;52.554;7.966;2023-05-10T13:39:56;6.20;;;4.07;;
15946;SDS011;8072;52.554;7.966;2023-05-10T13:42:22;5.23;;;4.00;;
15946;SDS011;8072;52.554;7.966;2023-05-10T13:44:49;4.03;;;3.33;;
15946;SDS011;8072;52.554;7.966;2023-05-10T13:47:15;4.37;;;3.23;;
15946;SDS011;8072;52.554;7.966;2023-05-10T13:49:41;4.43;;;3.20;;
15946;SDS011;8072;52.554;7.966;2023-05-10T13:52:07;4.53;;;3.30;;
15946;SDS011;8072;52.554;7.966;2023-05-10T13:54:35;4.57;;;2.70;;
15946;SDS011;8072;52.554;7.966;2023-05-10T13:57:02;4.73;;;3.20;;
15946;SDS011;8072;52.554;7.966;2023-05-10T13:59:28;3.33;;;3.03;;
15946;SDS011;8072;52.554;7.966;2023-05-10T14:01:56;4.87;;;2.63;;
15946;SDS011;8072;52.554;7.966;2023-05-10T14:04:23;10.70;;;4.27;;
15946;SDS011;8072;52.554;7.966;2023-05-10T14:06:49;4.90;;;3.10;;
15946;SDS011;8072;52.554;7.966;2023-05-10T14:09:14;4.43;;;2.90;;
15946;SDS011;8072;52.554;7.966;2023-05-10T14:11:41;4.07;;;2.90;;
15946;SDS011;8072;52.554;7.966;2023-05-10T14:14:08;5.03;;;2.60;;
15946;SDS011;8072;52.554;7.966;2023-05-10T14:16:34;3.23;;;2.30;;
15946;SDS011;8072;52.554;7.966;2023-05-10T14:19:00;4.20;;;2.50;;
15946;SDS011;8072;52.554;7.966;2023-05-10T14:21:26;2.97;;;2.53;;
15946;SDS011;8072;52.554;7.966;2023-05-10T14:23:54;2.90;;;2.03;;
15946;SDS011;8072;52.554;7.966;2023-05-10T14:26:20;3.77;;;2.13;;
15946;SDS011;8072;52.554;7.966;2023-05-10T14:28:46;2.00;;;1.80;;
15946;SDS011;8072;52.554;7.966;2023-05-10T14:31:12;2.70;;;2.13;;
15946;SDS011;8072;52.554;7.966;2023-05-10T14:33:39;3.93;;;1.90;;
15946;SDS011;8072;52.554;7.966;2023-05-10T14:36:05;2.53;;;2.00;;
15946;SDS011;8072;52.554;7.966;2023-05-10T14:38:31;4.07;;;2.35;;
15946;SDS011;8072;52.554;7.966;2023-05-10T14:40:57;3.13;;;2.23;;
15946;SDS011;8072;52.554;7.966;2023-05-10T14:43:23;2.28;;;1.80;;
15946;SDS011;8072;52.554;7.966;2023-05-10T14:45:49;2.77;;;2.00;;
15946;SDS011;8072;52.554;7.966;2023-05-10T14:48:15;2.20;;;1.90;;
15946;SDS011;8072;52.554;7.966;2023-05-10T14:50:42;2.50;;;1.80;;
15946;SDS011;8072;52.554;7.966;2023-05-10T14:53:09;3.93;;;2.03;;
15946;SDS011;8072;52.554;7.966;2023-05-10T14:55:34;2.67;;;1.90;;
15946;SDS011;8072;52.554;7.966;2023-05-10T14:58:03;3.17;;;1.80;;
15946;SDS011;8072;52.554;7.966;2023-05-10T15:00:29;2.27;;;1.97;;
15946;SDS011;8072;52.554;7.966;2023-05-10T15:02:55;3.83;;;1.80;;
15946;SDS011;8072;52.554;7.966;2023-05-10T15:05:21;2.73;;;2.00;;
15946;SDS011;8072;52.554;7.966;2023-05-10T15:07:47;3.73;;;2.33;;
15946;SDS011;8072;52.554;7.966;2023-05-10T15:10:14;6.00;;;2.30;;
15946;SDS011;8072;52.554;7.966;2023-05-10T15:12:40;3.57;;;2.60;;
15946;SDS011;8072;52.554;7.966;2023-05-10T15:15:06;5.30;;;2.77;;
15946;SDS011;8072;52.554;7.966;2023-05-10T15:17:33;4.87;;;2.77;;
15946;SDS011;8072;52.554;7.966;2023-05-10T15:19:59;4.03;;;3.23;;
15946;SDS011;8072;52.554;7.966;2023-05-10T15:22:27;4.20;;;2.97;;
15946;SDS011;8072;52.554;7.966;2023-05-10T15:24:53;6.47;;;3.40;;